sensor_id;sensor_type;location;lat;lon;timestamp;P1;durP1;ratioP1;P2;durP2;ratioP2
32297;SDS011;18782;48.984;8.548;2022-12-18T00:01:22;59.92;;;24.50;;
32297;SDS011;18782;48.984;8.548;2022-12-18T00:03:52;51.55;;;22.10;;
32297;SDS011;18782;48.984;8.548;2022-12-18T00:06:22;58.03;;;21.73;;
32297;SDS011;18782;48.984;8.548;2022-12-18T00:08:52;49.13;;;21.40;;
32297;SDS011;18782;48.984;8.548;2022-12-18T00:11:21;49.88;;;20.67;;
32297;SDS011;18782;48.984;8.548;2022-12-18T00:13:51;43.45;;;19.63;;
32297;SDS011;18782;48.984;8.548;2022-12-18T00:16:21;39.08;;;17.58;;
32297;SDS011;18782;48.984;8.548;2022-12-18T00:18:50;44.40;;;18.13;;
32297;SDS011;18782;48.984;8.548;2022-12-18T00:21:20;43.60;;;19.10;;
32297;SDS011;18782;48.984;8.548;2022-12-18T00:23:49;47.03;;;19.95;;
32297;SDS011;18782;48.984;8.548;2022-12-18T00:26:18;54.08;;;20.80;;
32297;SDS011;18782;48.984;8.548;2022-12-18T00:28:50;46.50;;;19.73;;
32297;SDS011;18782;48.984;8.548;2022-12-18T00:31:19;46.35;;;18.80;;
32297;SDS011;18782;48.984;8.548;2022-12-18T00:33:48;45.88;;;19.13;;
32297;SDS011;18782;48.984;8.548;2022-12-18T00:36:21;46.45;;;18.35;;
32297;SDS011;18782;48.984;8.548;2022-12-18T00:38:51;37.65;;;18.08;;
32297;SDS011;18782;48.984;8.548;2022-12-18T00:41:20;42.90;;;19.10;;
32297;SDS011;18782;48.984;8.548;2022-12-18T00:44:05;44.03;;;18.55;;
32297;SDS011;18782;48.984;8.548;2022-12-18T00:46:33;46.83;;;20.40;;
32297;SDS011;18782;48.984;8.548;2022-12-18T00:49:01;51.53;;;20.58;;
32297;SDS011;18782;48.984;8.548;2022-12-18T00:51:30;45.78;;;18.85;;
32297;SDS011;18782;48.984;8.548;2022-12-18T00:53:57;44.92;;;19.05;;
32297;SDS011;18782;48.984;8.548;2022-12-18T00:56:25;48.08;;;21.10;;
32297;SDS011;18782;48.984;8.548;2022-12-18T00:58:53;44.83;;;20.73;;
32297;SDS011;18782;48.984;8.548;2022-12-18T01:01:22;47.53;;;19.80;;
32297;SDS011;18782;48.984;8.548;2022-12-18T01:03:50;45.65;;;18.77;;
32297;SDS011;18782;48.984;8.548;2022-12-18T01:06:19;44.05;;;18.95;;
32297;SDS011;18782;48.984;8.548;2022-12-18T01:08:46;39.33;;;17.83;;
32297;SDS011;18782;48.984;8.548;2022-12-18T01:11:15;40.17;;;17.10;;
32297;SDS011;18782;48.984;8.548;2022-12-18T01:13:44;35.72;;;16.30;;
32297;SDS011;18782;48.984;8.548;2022-12-18T01:16:13;37.13;;;16.08;;
32297;SDS011;18782;48.984;8.548;2022-12-18T01:18:43;37.47;;;16.63;;
32297;SDS011;18782;48.984;8.548;2022-12-18T01:21:12;36.60;;;16.33;;
32297;SDS011;18782;48.984;8.548;2022-12-18T01:23:41;41.80;;;16.77;;
32297;SDS011;18782;48.984;8.548;2022-12-18T01:26:09;38.08;;;15.52;;
32297;SDS011;18782;48.984;8.548;2022-12-18T01:28:39;35.58;;;16.23;;
32297;SDS011;18782;48.984;8.548;2022-12-18T01:31:11;37.75;;;16.98;;
32297;SDS011;18782;48.984;8.548;2022-12-18T01:33:40;38.90;;;16.23;;
32297;SDS011;18782;48.984;8.548;2022-12-18T01:36:13;39.78;;;16.80;;
32297;SDS011;18782;48.984;8.548;2022-12-18T01:38:42;37.03;;;15.93;;
32297;SDS011;18782;48.984;8.548;2022-12-18T01:41:10;34.58;;;15.48;;
32297;SDS011;18782;48.984;8.548;2022-12-18T01:43:44;37.92;;;15.75;;
32297;SDS011;18782;48.984;8.548;2022-12-18T01:46:14;34.50;;;16.58;;
32297;SDS011;18782;48.984;8.548;2022-12-18T01:48:43;34.47;;;15.23;;
32297;SDS011;18782;48.984;8.548;2022-12-18T01:51:13;33.60;;;14.20;;
32297;SDS011;18782;48.984;8.548;2022-12-18T01:53:41;34.90;;;15.45;;
32297;SDS011;18782;48.984;8.548;2022-12-18T01:56:12;34.65;;;15.35;;
32297;SDS011;18782;48.984;8.548;2022-12-18T01:58:44;38.33;;;15.48;;
32297;SDS011;18782;48.984;8.548;2022-12-18T02:01:20;34.00;;;15.18;;
32297;SDS011;18782;48.984;8.548;2022-12-18T02:03:49;28.52;;;14.82;;
32297;SDS011;18782;48.984;8.548;2022-12-18T02:06:20;32.08;;;14.82;;
32297;SDS011;18782;48.984;8.548;2022-12-18T02:08:58;35.08;;;16.08;;
32297;SDS011;18782;48.984;8.548;2022-12-18T02:11:36;39.08;;;15.45;;
32297;SDS011;18782;48.984;8.548;2022-12-18T02:14:15;35.83;;;15.65;;
32297;SDS011;18782;48.984;8.548;2022-12-18T02:16:55;26.48;;;11.52;;
32297;SDS011;18782;48.984;8.548;2022-12-18T02:19:39;38.92;;;15.88;;
32297;SDS011;18782;48.984;8.548;2022-12-18T02:22:19;36.55;;;16.33;;
32297;SDS011;18782;48.984;8.548;2022-12-18T02:24:58;36.60;;;15.65;;
32297;SDS011;18782;48.984;8.548;2022-12-18T02:27:33;36.45;;;15.52;;
32297;SDS011;18782;48.984;8.548;2022-12-18T02:30:05;36.90;;;16.45;;
32297;SDS011;18782;48.984;8.548;2022-12-18T02:32:36;36.95;;;15.32;;
32297;SDS011;18782;48.984;8.548;2022-12-18T02:35:09;35.70;;;17.13;;
32297;SDS011;18782;48.984;8.548;2022-12-18T02:37:42;33.72;;;15.40;;
32297;SDS011;18782;48.984;8.548;2022-12-18T02:40:12;36.17;;;15.68;;
32297;SDS011;18782;48.984;8.548;2022-12-18T02:42:44;39.67;;;16.83;;
32297;SDS011;18782;48.984;8.548;2022-12-18T02:45:15;35.63;;;16.65;;
32297;SDS011;18782;48.984;8.548;2022-12-18T02:47:45;38.55;;;16.48;;
32297;SDS011;18782;48.984;8.548;2022-12-18T02:50:16;38.13;;;16.15;;
32297;SDS011;18782;48.984;8.548;2022-12-18T02:52:56;38.95;;;17.27;;
32297;SDS011;18782;48.984;8.548;2022-12-18T02:55:34;41.70;;;16.85;;
32297;SDS011;18782;48.984;8.548;2022-12-18T03:00:51;34.88;;;14.32;;
32297;SDS011;18782;48.984;8.548;2022-12-18T03:03:28;38.78;;;16.63;;
32297;SDS011;18782;48.984;8.548;2022-12-18T03:06:02;33.38;;;14.13;;
32297;SDS011;18782;48.984;8.548;2022-12-18T03:08:34;38.45;;;16.30;;
32297;SDS011;18782;48.984;8.548;2022-12-18T03:11:06;39.35;;;16.77;;
32297;SDS011;18782;48.984;8.548;2022-12-18T03:13:39;36.95;;;15.52;;
32297;SDS011;18782;48.984;8.548;2022-12-18T03:16:19;35.42;;;14.55;;
32297;SDS011;18782;48.984;8.548;2022-12-18T03:18:52;37.92;;;15.85;;
32297;SDS011;18782;48.984;8.548;2022-12-18T03:21:25;30.63;;;12.15;;
32297;SDS011;18782;48.984;8.548;2022-12-18T03:23:57;34.38;;;15.20;;
32297;SDS011;18782;48.984;8.548;2022-12-18T03:26:26;38.72;;;15.85;;
32297;SDS011;18782;48.984;8.548;2022-12-18T03:29:02;32.92;;;14.98;;
32297;SDS011;18782;48.984;8.548;2022-12-18T03:31:35;34.42;;;15.70;;
32297;SDS011;18782;48.984;8.548;2022-12-18T03:34:09;35.25;;;16.95;;
32297;SDS011;18782;48.984;8.548;2022-12-18T03:36:44;35.60;;;15.65;;
32297;SDS011;18782;48.984;8.548;2022-12-18T03:39:13;37.55;;;16.52;;
32297;SDS011;18782;48.984;8.548;2022-12-18T03:41:47;35.47;;;16.05;;
32297;SDS011;18782;48.984;8.548;2022-12-18T03:44:30;34.65;;;15.68;;
32297;SDS011;18782;48.984;8.548;2022-12-18T03:47:05;33.55;;;14.18;;
32297;SDS011;18782;48.984;8.548;2022-12-18T03:49:39;32.38;;;15.30;;
32297;SDS011;18782;48.984;8.548;2022-12-18T03:52:17;36.50;;;14.90;;
32297;SDS011;18782;48.984;8.548;2022-12-18T03:54:48;48.33;;;18.90;;
32297;SDS011;18782;48.984;8.548;2022-12-18T03:57:17;50.83;;;18.02;;
32297;SDS011;18782;48.984;8.548;2022-12-18T03:59:51;43.03;;;15.93;;
32297;SDS011;18782;48.984;8.548;2022-12-18T04:02:28;37.53;;;16.38;;
32297;SDS011;18782;48.984;8.548;2022-12-18T04:05:00;42.17;;;17.13;;
32297;SDS011;18782;48.984;8.548;2022-12-18T04:07:34;44.55;;;16.27;;
32297;SDS011;18782;48.984;8.548;2022-12-18T04:10:05;49.50;;;18.05;;
32297;SDS011;18782;48.984;8.548;2022-12-18T04:12:37;44.35;;;17.45;;
32297;SDS011;18782;48.984;8.548;2022-12-18T04:15:10;36.55;;;16.80;;
32297;SDS011;18782;48.984;8.548;2022-12-18T04:17:39;44.53;;;16.60;;
32297;SDS011;18782;48.984;8.548;2022-12-18T04:20:10;37.45;;;16.13;;
32297;SDS011;18782;48.984;8.548;2022-12-18T04:22:42;40.40;;;16.75;;
32297;SDS011;18782;48.984;8.548;2022-12-18T04:25:12;42.35;;;16.88;;
32297;SDS011;18782;48.984;8.548;2022-12-18T04:27:52;30.00;;;14.20;;
32297;SDS011;18782;48.984;8.548;2022-12-18T04:30:21;31.52;;;14.73;;
32297;SDS011;18782;48.984;8.548;2022-12-18T04:32:49;30.35;;;14.55;;
32297;SDS011;18782;48.984;8.548;2022-12-18T04:35:19;32.92;;;14.18;;
32297;SDS011;18782;48.984;8.548;2022-12-18T04:37:46;32.20;;;14.23;;
32297;SDS011;18782;48.984;8.548;2022-12-18T04:40:15;33.25;;;15.95;;
32297;SDS011;18782;48.984;8.548;2022-12-18T04:42:45;33.90;;;15.02;;
32297;SDS011;18782;48.984;8.548;2022-12-18T04:45:13;27.58;;;13.10;;
32297;SDS011;18782;48.984;8.548;2022-12-18T04:47:42;34.58;;;15.40;;
32297;SDS011;18782;48.984;8.548;2022-12-18T04:50:09;36.47;;;14.63;;
32297;SDS011;18782;48.984;8.548;2022-12-18T04:52:37;38.42;;;16.48;;
32297;SDS011;18782;48.984;8.548;2022-12-18T04:55:05;33.85;;;15.18;;
32297;SDS011;18782;48.984;8.548;2022-12-18T04:57:33;37.72;;;15.32;;
32297;SDS011;18782;48.984;8.548;2022-12-18T05:00:01;35.58;;;16.40;;
32297;SDS011;18782;48.984;8.548;2022-12-18T05:02:30;31.40;;;14.38;;
32297;SDS011;18782;48.984;8.548;2022-12-18T05:04:59;41.05;;;16.02;;
32297;SDS011;18782;48.984;8.548;2022-12-18T05:07:26;30.65;;;14.55;;
32297;SDS011;18782;48.984;8.548;2022-12-18T05:09:54;31.92;;;14.40;;
32297;SDS011;18782;48.984;8.548;2022-12-18T05:12:25;36.55;;;15.38;;
32297;SDS011;18782;48.984;8.548;2022-12-18T05:14:52;33.42;;;14.30;;
32297;SDS011;18782;48.984;8.548;2022-12-18T05:17:20;31.38;;;15.25;;
32297;SDS011;18782;48.984;8.548;2022-12-18T05:19:47;31.33;;;14.23;;
32297;SDS011;18782;48.984;8.548;2022-12-18T05:22:16;34.85;;;15.52;;
32297;SDS011;18782;48.984;8.548;2022-12-18T05:24:44;31.38;;;13.93;;
32297;SDS011;18782;48.984;8.548;2022-12-18T05:27:11;31.80;;;13.57;;
32297;SDS011;18782;48.984;8.548;2022-12-18T05:29:39;34.35;;;14.25;;
32297;SDS011;18782;48.984;8.548;2022-12-18T05:32:06;32.20;;;13.73;;
32297;SDS011;18782;48.984;8.548;2022-12-18T05:34:34;35.40;;;15.55;;
32297;SDS011;18782;48.984;8.548;2022-12-18T05:37:02;36.65;;;14.77;;
32297;SDS011;18782;48.984;8.548;2022-12-18T05:39:31;39.13;;;14.85;;
32297;SDS011;18782;48.984;8.548;2022-12-18T05:41:58;36.63;;;13.40;;
32297;SDS011;18782;48.984;8.548;2022-12-18T05:44:26;35.17;;;14.48;;
32297;SDS011;18782;48.984;8.548;2022-12-18T05:46:53;35.92;;;14.18;;
32297;SDS011;18782;48.984;8.548;2022-12-18T05:49:21;30.10;;;14.30;;
32297;SDS011;18782;48.984;8.548;2022-12-18T05:51:49;32.47;;;14.32;;
32297;SDS011;18782;48.984;8.548;2022-12-18T05:54:16;33.95;;;14.75;;
32297;SDS011;18782;48.984;8.548;2022-12-18T05:56:45;33.25;;;15.35;;
32297;SDS011;18782;48.984;8.548;2022-12-18T05:59:14;36.08;;;13.98;;
32297;SDS011;18782;48.984;8.548;2022-12-18T06:01:41;35.45;;;13.88;;
32297;SDS011;18782;48.984;8.548;2022-12-18T06:04:10;35.28;;;14.60;;
32297;SDS011;18782;48.984;8.548;2022-12-18T06:06:38;31.08;;;14.20;;
32297;SDS011;18782;48.984;8.548;2022-12-18T06:09:05;33.78;;;16.83;;
32297;SDS011;18782;48.984;8.548;2022-12-18T06:11:35;37.38;;;15.10;;
32297;SDS011;18782;48.984;8.548;2022-12-18T06:14:05;39.00;;;13.35;;
32297;SDS011;18782;48.984;8.548;2022-12-18T06:16:33;29.90;;;12.30;;
32297;SDS011;18782;48.984;8.548;2022-12-18T06:19:02;25.73;;;11.90;;
32297;SDS011;18782;48.984;8.548;2022-12-18T06:21:32;25.20;;;11.38;;
32297;SDS011;18782;48.984;8.548;2022-12-18T06:24:01;29.27;;;11.73;;
32297;SDS011;18782;48.984;8.548;2022-12-18T06:26:29;27.60;;;12.40;;
32297;SDS011;18782;48.984;8.548;2022-12-18T06:28:56;25.52;;;11.65;;
32297;SDS011;18782;48.984;8.548;2022-12-18T06:31:26;25.50;;;12.25;;
32297;SDS011;18782;48.984;8.548;2022-12-18T06:33:54;27.00;;;11.35;;
32297;SDS011;18782;48.984;8.548;2022-12-18T06:36:22;31.13;;;12.10;;
32297;SDS011;18782;48.984;8.548;2022-12-18T06:38:49;26.05;;;11.85;;
32297;SDS011;18782;48.984;8.548;2022-12-18T06:41:18;27.35;;;12.07;;
32297;SDS011;18782;48.984;8.548;2022-12-18T06:43:46;32.63;;;12.43;;
32297;SDS011;18782;48.984;8.548;2022-12-18T06:46:14;26.33;;;12.40;;
32297;SDS011;18782;48.984;8.548;2022-12-18T06:48:45;28.70;;;11.82;;
32297;SDS011;18782;48.984;8.548;2022-12-18T06:51:15;27.80;;;11.68;;
32297;SDS011;18782;48.984;8.548;2022-12-18T06:53:44;30.67;;;13.43;;
32297;SDS011;18782;48.984;8.548;2022-12-18T06:56:11;29.38;;;11.68;;
32297;SDS011;18782;48.984;8.548;2022-12-18T06:58:39;29.05;;;12.15;;
32297;SDS011;18782;48.984;8.548;2022-12-18T07:01:08;27.98;;;11.68;;
32297;SDS011;18782;48.984;8.548;2022-12-18T07:03:37;24.70;;;11.30;;
32297;SDS011;18782;48.984;8.548;2022-12-18T07:06:11;31.58;;;12.25;;
32297;SDS011;18782;48.984;8.548;2022-12-18T07:08:42;30.67;;;12.68;;
32297;SDS011;18782;48.984;8.548;2022-12-18T07:11:09;32.65;;;13.38;;
32297;SDS011;18782;48.984;8.548;2022-12-18T07:13:37;37.03;;;13.45;;
32297;SDS011;18782;48.984;8.548;2022-12-18T07:16:06;30.60;;;12.05;;
32297;SDS011;18782;48.984;8.548;2022-12-18T07:18:42;31.00;;;12.50;;
32297;SDS011;18782;48.984;8.548;2022-12-18T07:21:13;30.15;;;12.88;;
32297;SDS011;18782;48.984;8.548;2022-12-18T07:23:42;29.85;;;11.95;;
32297;SDS011;18782;48.984;8.548;2022-12-18T07:26:10;26.73;;;11.95;;
32297;SDS011;18782;48.984;8.548;2022-12-18T07:28:40;30.02;;;12.43;;
32297;SDS011;18782;48.984;8.548;2022-12-18T07:31:09;26.90;;;12.40;;
32297;SDS011;18782;48.984;8.548;2022-12-18T07:33:38;32.13;;;13.80;;
32297;SDS011;18782;48.984;8.548;2022-12-18T07:36:07;32.38;;;13.65;;
32297;SDS011;18782;48.984;8.548;2022-12-18T07:38:38;32.53;;;14.48;;
32297;SDS011;18782;48.984;8.548;2022-12-18T07:41:07;36.58;;;13.95;;
32297;SDS011;18782;48.984;8.548;2022-12-18T07:43:36;38.35;;;15.45;;
32297;SDS011;18782;48.984;8.548;2022-12-18T07:46:05;38.60;;;14.90;;
32297;SDS011;18782;48.984;8.548;2022-12-18T07:48:33;35.88;;;14.13;;
32297;SDS011;18782;48.984;8.548;2022-12-18T07:51:02;44.90;;;17.83;;
32297;SDS011;18782;48.984;8.548;2022-12-18T07:53:31;59.50;;;20.40;;
32297;SDS011;18782;48.984;8.548;2022-12-18T07:56:01;49.42;;;19.05;;
32297;SDS011;18782;48.984;8.548;2022-12-18T07:58:51;50.28;;;17.52;;
32297;SDS011;18782;48.984;8.548;2022-12-18T08:01:18;46.08;;;16.45;;
32297;SDS011;18782;48.984;8.548;2022-12-18T08:03:46;42.05;;;16.83;;
32297;SDS011;18782;48.984;8.548;2022-12-18T08:06:17;41.35;;;16.45;;
32297;SDS011;18782;48.984;8.548;2022-12-18T08:08:50;40.53;;;16.98;;
32297;SDS011;18782;48.984;8.548;2022-12-18T08:11:20;35.65;;;14.32;;
32297;SDS011;18782;48.984;8.548;2022-12-18T08:13:48;39.88;;;15.38;;
32297;SDS011;18782;48.984;8.548;2022-12-18T08:16:16;37.72;;;15.82;;
32297;SDS011;18782;48.984;8.548;2022-12-18T08:18:45;37.15;;;14.73;;
32297;SDS011;18782;48.984;8.548;2022-12-18T08:21:14;37.67;;;14.82;;
32297;SDS011;18782;48.984;8.548;2022-12-18T08:23:45;43.17;;;15.23;;
32297;SDS011;18782;48.984;8.548;2022-12-18T08:26:14;37.65;;;15.68;;
32297;SDS011;18782;48.984;8.548;2022-12-18T08:28:43;33.90;;;14.15;;
32297;SDS011;18782;48.984;8.548;2022-12-18T08:31:11;35.47;;;14.15;;
32297;SDS011;18782;48.984;8.548;2022-12-18T08:33:38;31.58;;;13.30;;
32297;SDS011;18782;48.984;8.548;2022-12-18T08:36:07;38.38;;;14.77;;
32297;SDS011;18782;48.984;8.548;2022-12-18T08:38:36;40.75;;;14.40;;
32297;SDS011;18782;48.984;8.548;2022-12-18T08:41:05;38.03;;;14.50;;
32297;SDS011;18782;48.984;8.548;2022-12-18T08:43:34;39.65;;;15.35;;
32297;SDS011;18782;48.984;8.548;2022-12-18T08:46:21;43.15;;;15.73;;
32297;SDS011;18782;48.984;8.548;2022-12-18T08:48:51;36.58;;;15.45;;
32297;SDS011;18782;48.984;8.548;2022-12-18T08:51:19;39.75;;;16.05;;
32297;SDS011;18782;48.984;8.548;2022-12-18T08:53:47;41.92;;;16.33;;
32297;SDS011;18782;48.984;8.548;2022-12-18T08:56:15;34.55;;;14.80;;
32297;SDS011;18782;48.984;8.548;2022-12-18T08:58:43;39.28;;;15.18;;
32297;SDS011;18782;48.984;8.548;2022-12-18T09:01:11;42.42;;;15.88;;
32297;SDS011;18782;48.984;8.548;2022-12-18T09:03:41;40.72;;;16.17;;
32297;SDS011;18782;48.984;8.548;2022-12-18T09:06:13;36.25;;;12.13;;
32297;SDS011;18782;48.984;8.548;2022-12-18T09:08:41;41.55;;;16.55;;
32297;SDS011;18782;48.984;8.548;2022-12-18T09:11:11;38.47;;;16.92;;
32297;SDS011;18782;48.984;8.548;2022-12-18T09:13:41;41.92;;;17.88;;
32297;SDS011;18782;48.984;8.548;2022-12-18T09:16:08;46.30;;;19.20;;
32297;SDS011;18782;48.984;8.548;2022-12-18T09:18:36;41.13;;;16.70;;
32297;SDS011;18782;48.984;8.548;2022-12-18T09:21:10;36.85;;;16.15;;
32297;SDS011;18782;48.984;8.548;2022-12-18T09:23:39;45.00;;;18.23;;
32297;SDS011;18782;48.984;8.548;2022-12-18T09:26:07;39.05;;;16.95;;
32297;SDS011;18782;48.984;8.548;2022-12-18T09:28:35;41.22;;;17.00;;
32297;SDS011;18782;48.984;8.548;2022-12-18T09:31:04;40.58;;;17.17;;
32297;SDS011;18782;48.984;8.548;2022-12-18T09:33:34;46.42;;;18.77;;
32297;SDS011;18782;48.984;8.548;2022-12-18T09:36:02;108.88;;;31.65;;
32297;SDS011;18782;48.984;8.548;2022-12-18T09:38:32;68.22;;;24.42;;
32297;SDS011;18782;48.984;8.548;2022-12-18T09:41:03;69.15;;;24.40;;
32297;SDS011;18782;48.984;8.548;2022-12-18T09:43:34;39.80;;;17.00;;
32297;SDS011;18782;48.984;8.548;2022-12-18T09:46:05;41.10;;;16.02;;
32297;SDS011;18782;48.984;8.548;2022-12-18T09:48:38;51.78;;;20.45;;
32297;SDS011;18782;48.984;8.548;2022-12-18T09:51:11;44.40;;;18.08;;
32297;SDS011;18782;48.984;8.548;2022-12-18T09:53:44;44.58;;;19.10;;
32297;SDS011;18782;48.984;8.548;2022-12-18T09:56:18;37.08;;;16.13;;
32297;SDS011;18782;48.984;8.548;2022-12-18T09:58:50;42.45;;;17.35;;
32297;SDS011;18782;48.984;8.548;2022-12-18T10:01:22;42.90;;;17.75;;
32297;SDS011;18782;48.984;8.548;2022-12-18T10:03:58;38.78;;;16.58;;
32297;SDS011;18782;48.984;8.548;2022-12-18T10:06:27;36.95;;;17.73;;
32297;SDS011;18782;48.984;8.548;2022-12-18T10:09:05;40.58;;;17.92;;
32297;SDS011;18782;48.984;8.548;2022-12-18T10:11:40;42.55;;;18.20;;
32297;SDS011;18782;48.984;8.548;2022-12-18T10:14:17;39.08;;;17.10;;
32297;SDS011;18782;48.984;8.548;2022-12-18T10:16:53;38.97;;;16.65;;
32297;SDS011;18782;48.984;8.548;2022-12-18T10:19:39;38.33;;;16.67;;
32297;SDS011;18782;48.984;8.548;2022-12-18T10:22:19;35.40;;;16.15;;
32297;SDS011;18782;48.984;8.548;2022-12-18T10:24:57;41.47;;;18.25;;
32297;SDS011;18782;48.984;8.548;2022-12-18T10:27:28;35.22;;;17.63;;
32297;SDS011;18782;48.984;8.548;2022-12-18T10:29:58;37.97;;;18.55;;
32297;SDS011;18782;48.984;8.548;2022-12-18T10:32:29;41.65;;;19.35;;
32297;SDS011;18782;48.984;8.548;2022-12-18T10:34:57;45.17;;;19.70;;
32297;SDS011;18782;48.984;8.548;2022-12-18T10:37:27;41.72;;;18.30;;
32297;SDS011;18782;48.984;8.548;2022-12-18T10:40:09;38.92;;;17.92;;
32297;SDS011;18782;48.984;8.548;2022-12-18T10:42:47;41.58;;;18.83;;
32297;SDS011;18782;48.984;8.548;2022-12-18T10:45:31;41.00;;;19.50;;
32297;SDS011;18782;48.984;8.548;2022-12-18T10:47:58;38.30;;;17.38;;
32297;SDS011;18782;48.984;8.548;2022-12-18T10:50:27;38.17;;;18.23;;
32297;SDS011;18782;48.984;8.548;2022-12-18T10:53:18;34.13;;;17.17;;
32297;SDS011;18782;48.984;8.548;2022-12-18T10:55:49;39.45;;;17.63;;
32297;SDS011;18782;48.984;8.548;2022-12-18T10:58:21;34.28;;;16.45;;
32297;SDS011;18782;48.984;8.548;2022-12-18T11:01:06;29.08;;;15.05;;
32297;SDS011;18782;48.984;8.548;2022-12-18T11:03:37;37.28;;;17.63;;
32297;SDS011;18782;48.984;8.548;2022-12-18T11:06:07;37.53;;;18.08;;
32297;SDS011;18782;48.984;8.548;2022-12-18T11:08:37;38.05;;;18.05;;
32297;SDS011;18782;48.984;8.548;2022-12-18T11:11:15;35.70;;;17.92;;
32297;SDS011;18782;48.984;8.548;2022-12-18T11:13:51;36.60;;;18.88;;
32297;SDS011;18782;48.984;8.548;2022-12-18T11:16:25;44.55;;;19.85;;
32297;SDS011;18782;48.984;8.548;2022-12-18T11:18:54;35.72;;;19.00;;
32297;SDS011;18782;48.984;8.548;2022-12-18T11:21:22;40.42;;;19.90;;
32297;SDS011;18782;48.984;8.548;2022-12-18T11:23:50;36.95;;;19.05;;
32297;SDS011;18782;48.984;8.548;2022-12-18T11:26:21;39.55;;;19.70;;
32297;SDS011;18782;48.984;8.548;2022-12-18T11:29:07;35.58;;;18.73;;
32297;SDS011;18782;48.984;8.548;2022-12-18T11:31:37;34.20;;;18.92;;
32297;SDS011;18782;48.984;8.548;2022-12-18T11:34:05;34.70;;;18.83;;
32297;SDS011;18782;48.984;8.548;2022-12-18T11:36:55;33.08;;;18.85;;
32297;SDS011;18782;48.984;8.548;2022-12-18T11:39:29;34.60;;;18.13;;
32297;SDS011;18782;48.984;8.548;2022-12-18T11:42:03;33.65;;;18.33;;
32297;SDS011;18782;48.984;8.548;2022-12-18T11:44:46;33.83;;;17.42;;
32297;SDS011;18782;48.984;8.548;2022-12-18T11:47:20;32.17;;;17.15;;
32297;SDS011;18782;48.984;8.548;2022-12-18T11:49:54;35.83;;;17.98;;
32297;SDS011;18782;48.984;8.548;2022-12-18T11:52:24;32.58;;;17.02;;
32297;SDS011;18782;48.984;8.548;2022-12-18T11:54:55;36.05;;;19.67;;
32297;SDS011;18782;48.984;8.548;2022-12-18T11:57:30;36.45;;;19.23;;
32297;SDS011;18782;48.984;8.548;2022-12-18T12:00:10;35.72;;;18.17;;
32297;SDS011;18782;48.984;8.548;2022-12-18T12:02:57;41.50;;;19.85;;
32297;SDS011;18782;48.984;8.548;2022-12-18T12:05:40;35.67;;;18.83;;
32297;SDS011;18782;48.984;8.548;2022-12-18T12:08:20;34.25;;;18.30;;
32297;SDS011;18782;48.984;8.548;2022-12-18T12:10:58;36.08;;;19.65;;
32297;SDS011;18782;48.984;8.548;2022-12-18T12:13:40;38.75;;;20.52;;
32297;SDS011;18782;48.984;8.548;2022-12-18T12:16:17;37.97;;;20.65;;
32297;SDS011;18782;48.984;8.548;2022-12-18T12:18:50;35.15;;;19.38;;
32297;SDS011;18782;48.984;8.548;2022-12-18T12:21:33;40.45;;;20.63;;
32297;SDS011;18782;48.984;8.548;2022-12-18T12:24:10;39.28;;;19.65;;
32297;SDS011;18782;48.984;8.548;2022-12-18T12:26:52;41.00;;;20.00;;
32297;SDS011;18782;48.984;8.548;2022-12-18T12:29:35;38.60;;;18.83;;
32297;SDS011;18782;48.984;8.548;2022-12-18T12:32:18;42.90;;;19.95;;
32297;SDS011;18782;48.984;8.548;2022-12-18T12:34:55;38.58;;;19.50;;
32297;SDS011;18782;48.984;8.548;2022-12-18T12:37:38;40.60;;;19.20;;
32297;SDS011;18782;48.984;8.548;2022-12-18T12:40:13;39.28;;;19.50;;
32297;SDS011;18782;48.984;8.548;2022-12-18T12:43:12;41.80;;;20.08;;
32297;SDS011;18782;48.984;8.548;2022-12-18T12:45:50;36.75;;;17.95;;
32297;SDS011;18782;48.984;8.548;2022-12-18T12:48:31;39.80;;;19.17;;
32297;SDS011;18782;48.984;8.548;2022-12-18T12:51:08;39.60;;;19.92;;
32297;SDS011;18782;48.984;8.548;2022-12-18T12:53:40;43.90;;;22.02;;
32297;SDS011;18782;48.984;8.548;2022-12-18T12:56:10;45.17;;;22.15;;
32297;SDS011;18782;48.984;8.548;2022-12-18T12:58:43;47.70;;;23.17;;
32297;SDS011;18782;48.984;8.548;2022-12-18T13:01:24;43.03;;;21.35;;
32297;SDS011;18782;48.984;8.548;2022-12-18T13:03:58;72.95;;;33.08;;
32297;SDS011;18782;48.984;8.548;2022-12-18T13:06:37;80.68;;;35.75;;
32297;SDS011;18782;48.984;8.548;2022-12-18T13:09:11;46.38;;;23.27;;
32297;SDS011;18782;48.984;8.548;2022-12-18T13:11:39;42.47;;;21.42;;
32297;SDS011;18782;48.984;8.548;2022-12-18T13:14:41;39.90;;;20.40;;
32297;SDS011;18782;48.984;8.548;2022-12-18T13:17:27;38.60;;;20.33;;
32297;SDS011;18782;48.984;8.548;2022-12-18T13:20:04;41.08;;;21.88;;
32297;SDS011;18782;48.984;8.548;2022-12-18T13:22:36;39.88;;;21.65;;
32297;SDS011;18782;48.984;8.548;2022-12-18T13:28:03;40.78;;;21.63;;
32297;SDS011;18782;48.984;8.548;2022-12-18T13:30:46;42.08;;;21.85;;
32297;SDS011;18782;48.984;8.548;2022-12-18T13:33:37;42.58;;;20.45;;
32297;SDS011;18782;48.984;8.548;2022-12-18T13:36:28;45.20;;;21.90;;
32297;SDS011;18782;48.984;8.548;2022-12-18T13:39:11;42.45;;;21.40;;
32297;SDS011;18782;48.984;8.548;2022-12-18T13:48:21;43.42;;;22.15;;
32297;SDS011;18782;48.984;8.548;2022-12-18T13:50:56;46.38;;;22.08;;
32297;SDS011;18782;48.984;8.548;2022-12-18T13:53:28;41.92;;;21.95;;
32297;SDS011;18782;48.984;8.548;2022-12-18T13:55:59;43.72;;;21.95;;
32297;SDS011;18782;48.984;8.548;2022-12-18T13:58:27;50.03;;;23.00;;
32297;SDS011;18782;48.984;8.548;2022-12-18T14:00:55;45.05;;;22.98;;
32297;SDS011;18782;48.984;8.548;2022-12-18T14:03:24;42.50;;;21.95;;
32297;SDS011;18782;48.984;8.548;2022-12-18T14:05:54;48.10;;;23.85;;
32297;SDS011;18782;48.984;8.548;2022-12-18T14:08:28;42.58;;;22.48;;
32297;SDS011;18782;48.984;8.548;2022-12-18T14:13:30;44.75;;;22.75;;
32297;SDS011;18782;48.984;8.548;2022-12-18T14:16:00;46.35;;;24.30;;
32297;SDS011;18782;48.984;8.548;2022-12-18T14:18:32;48.55;;;24.27;;
32297;SDS011;18782;48.984;8.548;2022-12-18T14:21:13;47.20;;;23.50;;
32297;SDS011;18782;48.984;8.548;2022-12-18T14:23:45;43.17;;;21.88;;
32297;SDS011;18782;48.984;8.548;2022-12-18T14:26:21;44.40;;;21.38;;
32297;SDS011;18782;48.984;8.548;2022-12-18T14:28:54;44.80;;;21.58;;
32297;SDS011;18782;48.984;8.548;2022-12-18T14:31:23;39.10;;;20.25;;
32297;SDS011;18782;48.984;8.548;2022-12-18T14:33:52;41.75;;;20.80;;
32297;SDS011;18782;48.984;8.548;2022-12-18T14:36:22;39.33;;;20.38;;
32297;SDS011;18782;48.984;8.548;2022-12-18T14:38:51;40.92;;;21.60;;
32297;SDS011;18782;48.984;8.548;2022-12-18T14:41:21;42.92;;;21.95;;
32297;SDS011;18782;48.984;8.548;2022-12-18T14:43:50;50.08;;;23.27;;
32297;SDS011;18782;48.984;8.548;2022-12-18T14:46:29;39.35;;;20.40;;
32297;SDS011;18782;48.984;8.548;2022-12-18T14:49:02;39.30;;;21.83;;
32297;SDS011;18782;48.984;8.548;2022-12-18T14:51:33;47.95;;;22.95;;
32297;SDS011;18782;48.984;8.548;2022-12-18T14:54:02;43.65;;;22.60;;
32297;SDS011;18782;48.984;8.548;2022-12-18T14:56:34;44.97;;;21.87;;
32297;SDS011;18782;48.984;8.548;2022-12-18T14:59:12;44.88;;;21.52;;
32297;SDS011;18782;48.984;8.548;2022-12-18T15:01:51;46.92;;;21.48;;
32297;SDS011;18782;48.984;8.548;2022-12-18T15:04:27;46.17;;;21.95;;